Main page
METAR-TAF:

METAR-TAF

Airports :

Palma de Mallorca, Spain

Palma de Mallorca Airport

latitude: 39-33N, longitude: 002-44E, elevation: 4 m

Current weather observation

The report was made 10 minutes ago, at 03:00 UTC
Wind 1 kt from variable directions
Temperature 6°C
Humidity 93%
Pressure 1020 hPa
Visibility 10 km or more
Few clouds at a height of 1800 ft

METAR: LEPA 190300Z VRB01KT 9999 FEW018 06/05 Q1020 NOSIG

Time: 04:10 (03:10 UTC)

Forecast

The report was made 4 hours and 10 minutes ago, at 23:00 UTC
Forecast valid from 19 at 00 UTC to 19 at 24 UTC
Wind 5 kt from the Northeast
Visibility 10 km or more
Few clouds at a height of 4000 ft
Temporary
from 19 at 10 UTC to 19 at 12 UTC
Wind 7 kt from the West/Southwest
Becoming
from 19 at 12 UTC to 19 at 14 UTC
Wind 7 kt from the West/Northwest
Becoming
from 19 at 18 UTC to 19 at 20 UTC
Wind 3 kt from the Northeast

TAF: LEPA 182300Z 1900/1924 04005KT 9999 FEW040 TX19/1912Z TN07/1906Z TEMPO 1910/1912 24007KT BECMG 1912/1914 30007KT BECMG 1918/1920 05003KT

Weather observations and forecasts of more than 4000 airports (METAR and TAF reports).

The available stations are represented by yellow and red dots on the map.

Hover mouse over dot to see the name of the station.

Then click to see weather observations and forecasts.

To change the map : click on the green buttons with a black cross to zoom in, on the green button with a dash to zoom out, or on the green arrows for adjacent maps.


METAR-TAF: